createdAt,value
2018-03-25T00:00:59.403Z,61.50
2018-03-25T00:03:27.830Z,61.30
2018-03-25T00:05:56.279Z,61.30
2018-03-25T00:08:24.895Z,61.50
2018-03-25T00:10:53.611Z,61.50
2018-03-25T00:13:22.702Z,61.70
2018-03-25T00:15:52.776Z,61.50
2018-03-25T00:18:22.625Z,61.40
2018-03-25T00:20:51.437Z,61.50
2018-03-25T00:23:19.872Z,61.40
2018-03-25T00:25:48.577Z,61.40
2018-03-25T00:28:17.270Z,61.30
2018-03-25T00:30:46.273Z,61.30
2018-03-25T00:33:15.628Z,61.10
2018-03-25T00:35:44.005Z,61.10
2018-03-25T00:38:12.384Z,61.20
2018-03-25T00:40:40.793Z,61.30
2018-03-25T00:43:09.175Z,61.60
2018-03-25T00:45:37.575Z,61.90
2018-03-25T00:48:05.958Z,62.00
2018-03-25T00:50:34.555Z,62.30
2018-03-25T00:53:02.926Z,62.40
2018-03-25T00:55:31.318Z,62.30
2018-03-25T00:58:00.511Z,61.10
2018-03-25T01:00:28.890Z,61.70
2018-03-25T01:02:57.298Z,61.60
2018-03-25T01:05:25.675Z,61.80
2018-03-25T01:07:54.044Z,61.70
2018-03-25T01:10:22.460Z,61.60
2018-03-25T01:12:50.841Z,61.70
2018-03-25T01:15:19.236Z,61.70
2018-03-25T01:17:47.627Z,61.60
2018-03-25T01:20:16.080Z,61.90
2018-03-25T01:22:46.764Z,62.50
2018-03-25T01:25:15.948Z,62.90
2018-03-25T01:27:44.350Z,62.90
2018-03-25T01:30:12.737Z,63.20
2018-03-25T01:32:41.144Z,63.50
2018-03-25T01:35:09.523Z,63.70
2018-03-25T01:37:37.938Z,63.80
2018-03-25T01:40:06.314Z,64.00
2018-03-25T01:42:34.710Z,63.90
2018-03-25T01:45:03.120Z,64.10
2018-03-25T01:47:31.530Z,64.20
2018-03-25T01:49:59.902Z,64.30
2018-03-25T01:52:28.310Z,64.40
2018-03-25T01:54:56.690Z,64.50
2018-03-25T01:57:25.064Z,64.40
2018-03-25T01:59:54.235Z,64.10
2018-03-25T02:02:22.607Z,64.20
2018-03-25T02:04:51.001Z,64.30
2018-03-25T02:07:19.401Z,64.40
2018-03-25T02:09:47.802Z,64.20
2018-03-25T02:12:17.012Z,64.40
2018-03-25T02:14:45.398Z,64.20
2018-03-25T02:17:13.781Z,64.40
2018-03-25T02:19:42.160Z,64.40
2018-03-25T02:22:10.564Z,64.40
2018-03-25T02:24:38.947Z,64.40
2018-03-25T02:27:07.350Z,64.40
2018-03-25T02:29:36.508Z,64.10
2018-03-25T02:34:39.432Z,64.10
2018-03-25T02:37:08.003Z,64.00
2018-03-25T02:39:36.387Z,64.00
2018-03-25T02:42:04.787Z,64.20
2018-03-25T02:44:34.361Z,64.50
2018-03-25T02:47:02.739Z,64.50
2018-03-25T02:49:31.142Z,64.60
2018-03-25T02:51:59.534Z,64.80
2018-03-25T02:54:28.063Z,64.80
2018-03-25T02:56:56.444Z,64.60
2018-03-25T02:59:24.829Z,64.80
2018-03-25T03:01:53.231Z,64.90
2018-03-25T03:04:21.610Z,65.10
2018-03-25T03:06:50.028Z,65.00
2018-03-25T03:09:19.227Z,64.70
2018-03-25T03:11:48.572Z,64.60
2018-03-25T03:14:16.961Z,64.60
2018-03-25T03:16:45.343Z,64.40
2018-03-25T03:19:13.759Z,64.40
2018-03-25T03:21:42.895Z,64.40
2018-03-25T03:24:11.298Z,64.40
2018-03-25T03:26:39.679Z,64.00
2018-03-25T03:29:08.091Z,64.10
2018-03-25T03:31:37.230Z,63.90
2018-03-25T03:34:05.648Z,63.90
2018-03-25T03:36:34.018Z,63.80
2018-03-25T03:39:02.421Z,63.60
2018-03-25T03:41:31.567Z,63.50
2018-03-25T03:44:00.052Z,63.40
2018-03-25T03:46:28.426Z,63.60
2018-03-25T03:48:56.834Z,64.00
2018-03-25T03:51:25.218Z,63.90
2018-03-25T03:53:55.129Z,63.40
2018-03-25T03:56:23.507Z,63.40
2018-03-25T03:58:52.168Z,63.50
2018-03-25T04:01:20.567Z,63.40
2018-03-25T04:03:48.946Z,63.00
2018-03-25T04:06:17.365Z,63.00
2018-03-25T04:08:45.737Z,63.10
2018-03-25T04:11:14.903Z,63.50
2018-03-25T04:13:43.278Z,63.60
2018-03-25T04:16:11.696Z,63.50
2018-03-25T04:18:40.089Z,63.40
2018-03-25T04:21:09.505Z,63.50
2018-03-25T04:23:37.881Z,63.70
2018-03-25T04:26:06.251Z,63.80
2018-03-25T04:28:34.650Z,63.80
2018-03-25T04:31:03.037Z,64.10
2018-03-25T04:33:31.450Z,64.30
2018-03-25T04:36:00.591Z,64.40
2018-03-25T04:38:28.994Z,65.10
2018-03-25T04:40:57.374Z,64.30
2018-03-25T04:43:25.779Z,64.20
2018-03-25T04:45:54.206Z,64.30
2018-03-25T04:48:24.165Z,64.20
2018-03-25T04:50:53.057Z,64.20
2018-03-25T04:53:21.913Z,64.30
2018-03-25T04:55:51.740Z,64.50
2018-03-25T04:58:21.620Z,64.50
2018-03-25T05:00:50.616Z,64.60
2018-03-25T05:03:19.755Z,64.70
2018-03-25T05:05:49.654Z,64.80
2018-03-25T05:08:18.530Z,65.00
2018-03-25T05:10:47.967Z,65.00
2018-03-25T05:13:16.950Z,65.50
2018-03-25T05:15:45.330Z,65.60
2018-03-25T05:18:13.740Z,65.40
2018-03-25T05:20:42.887Z,65.20
2018-03-25T05:23:11.292Z,65.20
2018-03-25T05:25:39.670Z,65.20
2018-03-25T05:28:08.151Z,65.30
2018-03-25T05:30:37.317Z,65.00
2018-03-25T05:33:05.724Z,65.00
2018-03-25T05:35:34.099Z,64.70
2018-03-25T05:38:02.506Z,64.60
2018-03-25T05:40:31.644Z,63.90
2018-03-25T05:43:00.047Z,63.90
2018-03-25T05:45:28.431Z,63.70
2018-03-25T05:47:57.524Z,63.60
2018-03-25T05:50:26.802Z,63.80
2018-03-25T05:52:55.204Z,63.80
2018-03-25T05:55:24.352Z,63.60
2018-03-25T05:57:53.523Z,63.40
2018-03-25T06:00:22.698Z,63.10
2018-03-25T06:02:51.106Z,63.10
2018-03-25T06:05:20.296Z,63.40
2018-03-25T06:07:49.471Z,63.40
2018-03-25T06:10:17.847Z,63.30
2018-03-25T06:12:46.249Z,63.00
2018-03-25T06:15:15.401Z,63.00
2018-03-25T06:17:43.806Z,62.90
2018-03-25T06:20:12.188Z,62.90
2018-03-25T06:22:40.564Z,62.90
2018-03-25T06:25:09.738Z,62.50
2018-03-25T06:27:38.119Z,62.60
2018-03-25T06:30:06.546Z,62.20
2018-03-25T06:32:35.701Z,61.50
2018-03-25T06:35:04.371Z,61.50
2018-03-25T06:37:32.756Z,61.00
2018-03-25T06:40:01.138Z,61.20
2018-03-25T06:42:29.540Z,61.10
2018-03-25T06:44:57.912Z,60.80
2018-03-25T06:47:26.327Z,60.00
2018-03-25T06:49:54.701Z,59.80
2018-03-25T06:52:24.239Z,59.30
2018-03-25T06:54:52.622Z,59.30
2018-03-25T06:57:20.998Z,58.60
2018-03-25T06:59:49.398Z,58.40
2018-03-25T07:02:17.777Z,58.60
2018-03-25T07:04:46.174Z,57.90
2018-03-25T07:07:14.555Z,56.90
2018-03-25T07:09:43.201Z,56.10
2018-03-25T07:12:11.573Z,54.70
2018-03-25T07:14:39.967Z,52.30
2018-03-25T07:17:08.378Z,50.60
2018-03-25T07:19:36.761Z,50.50
2018-03-25T07:22:05.938Z,46.40
2018-03-25T07:24:34.322Z,46.30
2018-03-25T07:27:03.513Z,44.20
2018-03-25T07:29:31.921Z,44.10
2018-03-25T07:32:01.075Z,40.40
2018-03-25T07:34:29.500Z,40.40
2018-03-25T07:36:58.771Z,37.10
2018-03-25T07:39:27.191Z,37.00
2018-03-25T07:41:55.578Z,35.80
2018-03-25T07:44:24.031Z,35.20
2018-03-25T07:46:53.188Z,34.00
2018-03-25T07:49:21.594Z,33.80
2018-03-25T07:51:50.910Z,30.10
2018-03-25T07:54:20.067Z,29.40
2018-03-25T07:56:48.510Z,29.40
2018-03-25T07:59:16.900Z,27.60
2018-03-25T08:01:45.811Z,27.10
2018-03-25T08:04:14.195Z,25.90
2018-03-25T08:06:42.599Z,25.20
2018-03-25T08:09:11.840Z,24.60
2018-03-25T08:11:40.982Z,24.30
2018-03-25T08:14:09.397Z,24.30
2018-03-25T08:16:37.820Z,24.30
2018-03-25T08:19:06.254Z,23.30
2018-03-25T08:21:35.505Z,23.00
2018-03-25T08:24:03.889Z,23.00
2018-03-25T08:26:32.293Z,23.80
2018-03-25T08:29:01.503Z,25.30
2018-03-25T08:31:30.011Z,25.20
2018-03-25T08:39:59.010Z,28.10
2018-03-25T08:42:28.217Z,26.60
2018-03-25T08:44:57.471Z,25.50
2018-03-25T08:47:26.186Z,25.50
2018-03-25T08:49:55.368Z,23.80
2018-03-25T08:52:23.789Z,23.70
2018-03-25T08:54:52.231Z,23.00
2018-03-25T08:57:20.618Z,21.80
2018-03-25T08:59:49.055Z,21.40
2018-03-25T09:02:17.484Z,21.20
2018-03-25T09:04:46.682Z,20.80
2018-03-25T09:07:15.907Z,19.40
2018-03-25T09:09:44.325Z,19.40
2018-03-25T09:12:12.762Z,19.70
2018-03-25T09:14:41.144Z,19.50
2018-03-25T09:17:11.522Z,18.80
2018-03-25T09:19:48.746Z,18.50
2018-03-25T09:22:17.467Z,18.00
2018-03-25T09:28:14.445Z,16.90
2018-03-25T09:30:57.736Z,17.10
2018-03-25T09:33:26.195Z,16.60
2018-03-25T09:35:55.360Z,15.60
2018-03-25T09:38:23.760Z,15.50
2018-03-25T09:40:52.980Z,15.70
2018-03-25T09:43:22.173Z,15.70
2018-03-25T09:45:54.549Z,16.10
2018-03-25T09:48:22.978Z,16.10
2018-03-25T09:50:52.279Z,15.60
2018-03-25T09:53:20.667Z,15.80
2018-03-25T09:55:49.063Z,16.00
2018-03-25T09:58:18.235Z,15.40
2018-03-25T10:00:49.635Z,14.90
2018-03-25T10:03:38.710Z,15.20
2018-03-25T10:06:07.486Z,15.50
2018-03-25T10:08:35.901Z,15.10
2018-03-25T10:11:05.099Z,14.80
2018-03-25T10:13:34.800Z,15.70
2018-03-25T10:16:07.961Z,16.70
2018-03-25T10:18:39.193Z,16.20
2018-03-25T10:21:07.627Z,16.20
2018-03-25T10:23:36.140Z,16.10
2018-03-25T10:26:05.174Z,16.40
2018-03-25T10:28:33.561Z,16.70
2018-03-25T10:31:01.966Z,16.00
2018-03-25T10:33:31.068Z,16.20
2018-03-25T10:35:59.742Z,16.10
2018-03-25T10:38:49.834Z,15.20
2018-03-25T10:41:45.034Z,15.10
2018-03-25T10:47:04.422Z,14.60
2018-03-25T10:49:33.738Z,15.30
2018-03-25T10:52:02.123Z,15.30
2018-03-25T10:54:32.034Z,15.90
2018-03-25T10:57:00.414Z,15.90
2018-03-25T10:59:28.835Z,16.30
2018-03-25T11:01:57.214Z,16.30
2018-03-25T11:04:25.886Z,16.00
2018-03-25T11:06:55.038Z,15.10
2018-03-25T11:09:23.430Z,15.00
2018-03-25T11:11:51.835Z,14.30
2018-03-25T11:14:21.267Z,14.40
2018-03-25T11:16:49.681Z,14.40
2018-03-25T11:19:18.095Z,13.80
2018-03-25T11:21:47.547Z,13.10
2018-03-25T11:24:15.976Z,13.00
2018-03-25T11:26:45.120Z,13.00
2018-03-25T11:29:13.586Z,13.00
2018-03-25T11:31:41.966Z,13.30
2018-03-25T11:34:11.444Z,13.10
2018-03-25T11:36:40.547Z,12.50
2018-03-25T11:39:10.868Z,13.10
2018-03-25T11:41:40.414Z,13.20
2018-03-25T11:44:09.843Z,12.70
2018-03-25T11:46:38.254Z,12.60
2018-03-25T11:49:07.422Z,12.30
2018-03-25T11:51:35.832Z,12.30
2018-03-25T11:54:04.992Z,12.00
2018-03-25T11:56:33.412Z,11.90
2018-03-25T11:59:01.799Z,11.70
2018-03-25T12:01:33.517Z,11.80
2018-03-25T12:04:02.668Z,11.40
2018-03-25T12:06:31.049Z,11.40
2018-03-25T12:08:59.471Z,12.30
2018-03-25T12:11:27.855Z,12.60
2018-03-25T12:13:57.030Z,11.80
2018-03-25T12:16:26.036Z,11.80
2018-03-25T12:18:54.635Z,12.10
2018-03-25T12:21:22.996Z,12.30
2018-03-25T12:23:51.386Z,11.70
2018-03-25T12:26:20.234Z,11.60
2018-03-25T12:28:48.615Z,11.60
2018-03-25T12:31:17.026Z,11.40
2018-03-25T12:33:45.412Z,11.20
2018-03-25T12:36:14.055Z,10.90
2018-03-25T12:38:42.455Z,10.90
2018-03-25T12:41:10.858Z,11.10
2018-03-25T12:43:40.648Z,11.00
2018-03-25T13:06:29.854Z,10.30
2018-03-25T13:09:02.313Z,10.10
2018-03-25T13:11:31.926Z,10.30
2018-03-25T13:14:00.315Z,10.20
2018-03-25T13:16:29.471Z,10.90
2018-03-25T13:18:58.012Z,11.00
2018-03-25T13:21:27.171Z,11.20
2018-03-25T13:23:55.637Z,11.10
2018-03-25T13:26:24.025Z,10.90
2018-03-25T13:28:52.768Z,10.80
2018-03-25T13:31:21.154Z,10.90
2018-03-25T13:33:49.664Z,10.80
2018-03-25T13:36:18.076Z,10.80
2018-03-25T13:38:46.472Z,10.60
2018-03-25T13:41:15.641Z,9.80
2018-03-25T13:43:44.026Z,9.80
2018-03-25T13:46:12.426Z,9.90
2018-03-25T13:48:41.574Z,9.10
2018-03-25T13:51:10.042Z,9.10
2018-03-25T13:53:38.428Z,9.10
2018-03-25T13:56:06.904Z,9.30
2018-03-25T13:58:35.322Z,9.50
2018-03-25T14:01:03.727Z,9.50
2018-03-25T14:03:32.903Z,10.00
2018-03-25T14:06:01.308Z,9.90
2018-03-25T14:08:29.879Z,10.90
2018-03-25T14:10:59.042Z,10.00
2018-03-25T14:13:27.418Z,9.90
2018-03-25T14:15:56.047Z,10.20
2018-03-25T14:21:24.424Z,9.60
2018-03-25T14:23:53.652Z,9.60
2018-03-25T14:26:23.701Z,9.90
2018-03-25T14:28:52.172Z,10.40
2018-03-25T14:31:22.114Z,11.10
2018-03-25T14:33:53.554Z,11.50
2018-03-25T14:36:22.022Z,12.10
2018-03-25T14:38:52.621Z,11.70
2018-03-25T14:41:21.178Z,11.70
2018-03-25T14:43:49.844Z,12.40
2018-03-25T14:46:20.550Z,14.10
2018-03-25T14:48:53.339Z,14.90
2018-03-25T14:51:21.787Z,14.80
2018-03-25T14:53:50.214Z,15.20
2018-03-25T14:56:21.131Z,16.60
2018-03-25T14:58:51.457Z,17.60
2018-03-25T15:01:22.416Z,19.10
2018-03-25T15:03:53.328Z,19.50
2018-03-25T15:06:24.415Z,20.00
2018-03-25T15:08:56.146Z,20.80
2018-03-25T15:11:27.407Z,20.80
2018-03-25T15:13:59.005Z,21.50
2018-03-25T15:16:30.672Z,22.20
2018-03-25T15:19:01.573Z,23.30
2018-03-25T15:21:33.727Z,24.20
2018-03-25T15:24:05.357Z,24.10
2018-03-25T15:26:36.374Z,24.30
2018-03-25T15:29:07.038Z,24.40
2018-03-25T15:31:37.833Z,25.10
2018-03-25T15:34:07.803Z,25.00
2018-03-25T15:36:39.295Z,25.20
2018-03-25T15:39:10.064Z,25.40
2018-03-25T15:41:43.653Z,26.20
2018-03-25T15:44:15.786Z,25.90
2018-03-25T15:46:48.495Z,25.90
2018-03-25T15:49:19.083Z,26.40
2018-03-25T15:51:52.071Z,26.80
2018-03-25T15:54:22.469Z,27.20
2018-03-25T15:56:52.984Z,27.00
2018-03-25T15:59:24.008Z,27.00
2018-03-25T16:01:56.129Z,27.70
2018-03-25T16:04:26.416Z,27.70
2018-03-25T16:06:57.288Z,27.80
2018-03-25T16:09:29.624Z,27.90
2018-03-25T16:12:00.902Z,29.00
2018-03-25T16:14:32.227Z,29.00
2018-03-25T16:17:03.491Z,28.40
2018-03-25T16:19:33.871Z,28.70
2018-03-25T16:22:02.437Z,29.10
2018-03-25T16:24:31.745Z,29.80
2018-03-25T16:27:00.200Z,29.70
2018-03-25T16:29:28.636Z,29.70
2018-03-25T16:31:57.141Z,29.90
2018-03-25T16:34:26.339Z,30.30
2018-03-25T16:36:55.689Z,31.10
2018-03-25T16:39:25.822Z,30.70
2018-03-25T16:41:54.286Z,31.60
2018-03-25T16:44:22.672Z,32.10
2018-03-25T16:46:51.107Z,33.30
2018-03-25T16:49:19.921Z,34.30
2018-03-25T16:51:50.573Z,35.30
2018-03-25T16:54:19.388Z,35.50
2018-03-25T16:56:48.558Z,35.90
2018-03-25T16:59:17.144Z,36.30
2018-03-25T17:01:45.555Z,36.60
2018-03-25T17:04:20.530Z,37.00
2018-03-25T17:06:48.964Z,37.40
2018-03-25T17:09:17.474Z,37.50
2018-03-25T17:11:46.619Z,37.40
2018-03-25T17:14:15.043Z,37.20
2018-03-25T17:16:44.195Z,38.30
2018-03-25T17:19:13.535Z,38.30
2018-03-25T17:21:42.714Z,38.40
2018-03-25T17:24:11.112Z,38.30
2018-03-25T17:26:40.291Z,38.40
2018-03-25T17:29:08.692Z,38.40
2018-03-25T17:31:38.299Z,38.90
2018-03-25T17:34:07.459Z,39.20
2018-03-25T17:36:35.854Z,39.10
2018-03-25T17:39:06.046Z,39.60
2018-03-25T17:41:34.463Z,39.60
2018-03-25T17:44:02.949Z,39.60
2018-03-25T17:46:32.129Z,40.30
2018-03-25T17:49:00.789Z,40.10
2018-03-25T17:51:29.199Z,40.20
2018-03-25T17:53:57.617Z,40.20
2018-03-25T17:56:26.181Z,40.40
2018-03-25T17:58:55.560Z,40.80
2018-03-25T18:01:24.135Z,40.80
2018-03-25T18:03:52.748Z,41.10
2018-03-25T18:06:22.764Z,41.20
2018-03-25T18:08:52.400Z,41.40
2018-03-25T18:11:21.271Z,41.30
2018-03-25T18:13:50.307Z,41.20
2018-03-25T18:16:19.033Z,41.40
2018-03-25T18:18:47.901Z,41.60
2018-03-25T18:21:16.440Z,42.00
2018-03-25T18:23:44.827Z,42.00
2018-03-25T18:26:13.735Z,42.20
2018-03-25T18:28:42.263Z,42.30
2018-03-25T18:31:11.431Z,42.60
2018-03-25T18:33:39.996Z,42.50
2018-03-25T18:36:08.416Z,42.60
2018-03-25T18:38:37.622Z,43.00
2018-03-25T18:41:06.973Z,43.10
2018-03-25T18:43:35.720Z,43.10
2018-03-25T18:46:04.117Z,43.20
2018-03-25T18:48:32.664Z,43.10
2018-03-25T18:51:01.124Z,43.20
2018-03-25T18:53:29.564Z,43.30
2018-03-25T18:55:58.678Z,43.70
2018-03-25T18:58:27.083Z,43.70
2018-03-25T19:00:55.845Z,43.70
2018-03-25T19:03:24.227Z,43.70
2018-03-25T19:05:52.698Z,43.70
2018-03-25T19:08:22.607Z,43.70
2018-03-25T19:10:51.015Z,44.20
2018-03-25T19:13:27.169Z,44.40
2018-03-25T19:16:02.942Z,44.80
2018-03-25T19:18:46.034Z,45.30
2018-03-25T19:21:16.640Z,46.70
2018-03-25T19:23:45.263Z,47.00
2018-03-25T19:26:13.881Z,47.70
2018-03-25T19:28:43.336Z,47.60
2018-03-25T19:31:11.815Z,48.20
2018-03-25T19:33:40.470Z,47.40
2018-03-25T19:36:08.907Z,47.90
2018-03-25T19:38:37.338Z,47.70
2018-03-25T19:41:05.734Z,47.90
2018-03-25T19:43:34.859Z,47.90
2018-03-25T19:46:03.420Z,47.90
2018-03-25T19:48:32.292Z,48.10
2018-03-25T19:51:01.015Z,48.20
2018-03-25T19:53:29.441Z,48.20
2018-03-25T19:55:58.719Z,48.60
2018-03-25T19:58:27.909Z,48.70
2018-03-25T20:00:56.514Z,48.90
2018-03-25T20:03:25.140Z,49.10
2018-03-25T20:05:53.869Z,49.20
2018-03-25T20:08:22.325Z,49.30
2018-03-25T20:10:51.296Z,49.60
2018-03-25T20:13:20.083Z,49.80
2018-03-25T20:15:49.798Z,49.90
2018-03-25T20:18:18.553Z,49.90
2018-03-25T20:20:47.147Z,50.20
2018-03-25T20:23:15.952Z,50.40
2018-03-25T20:25:44.804Z,50.50
2018-03-25T20:28:13.238Z,50.50
2018-03-25T20:30:41.792Z,50.60
2018-03-25T20:33:10.284Z,50.80
2018-03-25T20:35:38.695Z,51.10
2018-03-25T20:38:07.124Z,51.20
2018-03-25T20:40:35.509Z,51.20
2018-03-25T20:43:03.881Z,51.40
2018-03-25T20:45:32.494Z,51.70
2018-03-25T20:48:17.917Z,51.80
2018-03-25T20:51:00.332Z,52.00
2018-03-25T20:53:32.492Z,52.40
2018-03-25T20:56:06.239Z,52.30
2018-03-25T20:58:35.033Z,52.20
2018-03-25T21:01:03.434Z,52.50
2018-03-25T21:03:32.090Z,52.60
2018-03-25T21:06:00.888Z,52.70
2018-03-25T21:08:30.817Z,52.80
2018-03-25T21:11:00.401Z,53.20
2018-03-25T21:13:31.085Z,53.20
2018-03-25T21:16:02.298Z,53.30
2018-03-25T21:18:43.411Z,53.20
2018-03-25T21:21:24.096Z,53.60
2018-03-25T21:23:53.732Z,53.80
2018-03-25T21:26:22.122Z,54.30
2018-03-25T21:28:50.770Z,54.50
2018-03-25T21:31:19.155Z,54.40
2018-03-25T21:33:47.574Z,54.50
2018-03-25T21:36:16.773Z,54.30
2018-03-25T21:38:45.145Z,54.30
2018-03-25T21:41:26.778Z,54.30
2018-03-25T21:43:55.946Z,54.80
2018-03-25T21:46:24.596Z,55.20
2018-03-25T21:48:52.981Z,55.60
2018-03-25T21:51:21.357Z,56.10
2018-03-25T21:53:50.318Z,56.10
2018-03-25T21:56:18.723Z,56.20
2018-03-25T21:58:47.234Z,56.20
2018-03-25T22:01:15.671Z,56.40
2018-03-25T22:03:44.387Z,56.30
2018-03-25T22:06:12.774Z,56.30
2018-03-25T22:08:41.158Z,56.30
2018-03-25T22:11:09.569Z,56.30
2018-03-25T22:13:37.947Z,56.00
2018-03-25T22:16:07.125Z,56.00
2018-03-25T22:18:54.014Z,56.20
2018-03-25T22:21:22.719Z,56.20
2018-03-25T22:23:51.870Z,56.60
2018-03-25T22:26:20.314Z,56.30
2018-03-25T22:28:49.560Z,56.90
2018-03-25T22:31:18.132Z,56.90
2018-03-25T22:33:46.514Z,56.80
2018-03-25T22:36:14.886Z,56.60
2018-03-25T22:38:43.592Z,56.50
2018-03-25T22:41:11.974Z,56.60
2018-03-25T22:43:40.362Z,56.80
2018-03-25T22:46:08.938Z,56.60
2018-03-25T22:48:41.405Z,56.90
2018-03-25T22:51:15.052Z,56.90
2018-03-25T22:53:45.341Z,57.40
2018-03-25T22:56:13.795Z,56.90
2018-03-25T22:58:42.211Z,56.80
2018-03-25T23:01:11.741Z,57.10
2018-03-25T23:03:40.777Z,56.90
2018-03-25T23:06:09.182Z,57.10
2018-03-25T23:08:39.099Z,57.20
2018-03-25T23:11:08.277Z,57.30
2018-03-25T23:13:37.235Z,57.30
2018-03-25T23:16:05.610Z,57.50
2018-03-25T23:18:34.496Z,57.70
2018-03-25T23:21:03.041Z,57.70
2018-03-25T23:23:32.126Z,57.30
2018-03-25T23:26:00.523Z,57.10
2018-03-25T23:28:30.739Z,57.10
2018-03-25T23:30:59.519Z,57.30
2018-03-25T23:33:28.417Z,58.00
2018-03-25T23:35:57.719Z,58.50
2018-03-25T23:38:26.147Z,58.50
2018-03-25T23:40:55.062Z,58.50
2018-03-25T23:43:25.063Z,58.50
2018-03-25T23:45:53.441Z,58.40
2018-03-25T23:48:21.940Z,58.10
2018-03-25T23:50:50.320Z,58.10
2018-03-25T23:53:19.104Z,58.20
2018-03-25T23:55:47.711Z,57.90
2018-03-25T23:58:16.090Z,57.90
